Oviedo, Florida
Current Conditions -  °F | °C
As of 4:22 AM on Wednesday 22 Oct 2014 (Local Time) from KSFB Reporting Station
Moderate Fog Moderate Fog  
Wind Chill: 69°   Ceiling: 200
Heat Index: 69°   Visibility: 0.25mi
Dew Point: 68°   Wind: 5mph
Humidity: 96%   Direction: 330°NNW
Pressure: 29.93"   Gusts: NA
Location:  28.65°N, 81.2°W
Report Text: KSFB 220822Z AUTO 33004KT 1/4SM FG VV002 21/20 A2993 RMK AO2 T02060200
Loading
Personal Weather Stations






























Interactive Weather Map
Tropical Storm Tracking
New forecast layout! Learn more

10-Day Weather Forecast

Advertisements
Track Severe Weather on mobile